createdAt,value
2019-03-03T00:04:03.751Z,26.13
2019-03-03T00:09:07.167Z,23.70
2019-03-03T00:14:10.210Z,27.70
2019-03-03T00:19:13.022Z,26.73
2019-03-03T00:24:18.940Z,26.57
2019-03-03T00:29:21.805Z,28.10
2019-03-03T00:34:24.626Z,26.43
2019-03-03T00:40:01.793Z,29.30
2019-03-03T00:45:23.993Z,26.70
2019-03-03T00:50:39.863Z,28.97
2019-03-03T00:55:58.305Z,26.23
2019-03-03T01:01:20.610Z,29.10
2019-03-03T01:06:42.989Z,26.73
2019-03-03T01:11:57.242Z,28.47
2019-03-03T01:17:18.012Z,25.70
2019-03-03T01:22:31.226Z,27.67
2019-03-03T01:27:37.037Z,27.00
2019-03-03T01:32:40.509Z,26.50
2019-03-03T01:37:43.488Z,26.30
2019-03-03T01:42:46.847Z,25.70
2019-03-03T01:47:49.670Z,26.50
2019-03-03T01:52:52.484Z,25.17
2019-03-03T01:57:55.277Z,25.80
2019-03-03T02:02:58.478Z,24.57
2019-03-03T02:08:04.847Z,23.53
2019-03-03T02:13:07.724Z,22.27
2019-03-03T02:18:10.588Z,20.83
2019-03-03T02:23:13.522Z,18.73
2019-03-03T02:28:22.521Z,20.23
2019-03-03T02:33:25.397Z,19.37
2019-03-03T02:38:28.229Z,19.87
2019-03-03T02:43:40.931Z,20.40
2019-03-03T02:48:43.717Z,22.13
2019-03-03T02:53:46.545Z,18.30
2019-03-03T02:58:55.335Z,17.83
2019-03-03T03:03:58.159Z,17.40
2019-03-03T03:09:18.907Z,16.10
2019-03-03T03:14:44.358Z,14.37
2019-03-03T03:19:56.032Z,15.20
2019-03-03T03:25:20.994Z,12.80
2019-03-03T03:30:43.247Z,11.37
2019-03-03T03:36:17.643Z,10.93
2019-03-03T03:41:32.092Z,11.40
2019-03-03T03:47:09.873Z,10.13
2019-03-03T03:52:44.474Z,9.40
2019-03-03T03:58:09.586Z,8.37
2019-03-03T04:03:48.460Z,9.60
2019-03-03T04:09:08.495Z,8.57
2019-03-03T04:14:39.804Z,7.60
2019-03-03T04:19:55.722Z,7.63
2019-03-03T04:25:19.372Z,6.63
2019-03-03T04:30:39.894Z,6.60
2019-03-03T04:36:03.075Z,7.10
2019-03-03T04:41:23.449Z,6.20
2019-03-03T04:46:48.941Z,6.63
2019-03-03T04:52:02.308Z,5.50
2019-03-03T04:57:23.161Z,6.30
2019-03-03T05:02:45.488Z,6.57
2019-03-03T05:07:57.007Z,6.03
2019-03-03T05:13:21.986Z,6.00
2019-03-03T05:18:44.200Z,6.00
2019-03-03T05:23:47.016Z,5.70
2019-03-03T05:28:50.425Z,6.50
2019-03-03T05:33:56.036Z,6.07
2019-03-03T05:38:58.878Z,6.27
2019-03-03T05:44:01.725Z,7.37
2019-03-03T05:49:05.271Z,6.60
2019-03-03T05:54:08.638Z,8.70
2019-03-03T05:59:11.508Z,8.73
2019-03-03T06:04:14.311Z,8.60
2019-03-03T06:09:17.115Z,10.03
2019-03-03T06:14:20.157Z,10.17
2019-03-03T06:19:23.574Z,9.67
2019-03-03T06:24:29.717Z,10.70
2019-03-03T06:29:32.483Z,12.17
2019-03-03T06:34:35.292Z,11.60
2019-03-03T06:39:38.245Z,12.30
2019-03-03T06:44:41.007Z,13.27
2019-03-03T06:49:44.486Z,12.20
2019-03-03T06:54:47.938Z,12.53
2019-03-03T06:59:50.759Z,13.37
2019-03-03T07:04:54.109Z,12.80
2019-03-03T07:10:00.310Z,12.73
2019-03-03T07:15:03.870Z,12.80
2019-03-03T07:20:08.014Z,12.10
2019-03-03T07:25:11.429Z,11.63
2019-03-03T07:30:15.330Z,11.80
2019-03-03T07:35:18.602Z,11.47
2019-03-03T07:40:23.440Z,11.57
2019-03-03T07:45:29.636Z,10.97
2019-03-03T07:50:33.018Z,11.13
2019-03-03T07:55:36.474Z,12.00
2019-03-03T08:00:41.999Z,12.10
2019-03-03T08:05:45.352Z,13.90
2019-03-03T08:10:48.132Z,13.30
2019-03-03T08:15:51.347Z,12.20
2019-03-03T08:20:57.640Z,12.27
2019-03-03T08:26:00.936Z,11.33
2019-03-03T08:31:04.343Z,11.53
2019-03-03T08:36:09.570Z,11.50
2019-03-03T08:41:12.831Z,10.47
2019-03-03T08:46:27.044Z,10.90
2019-03-03T08:51:59.030Z,10.27
2019-03-03T08:57:11.451Z,10.50
2019-03-03T09:02:42.442Z,10.27
2019-03-03T09:07:56.985Z,9.93
2019-03-03T09:13:19.349Z,9.83
2019-03-03T09:18:33.614Z,10.57
2019-03-03T09:24:14.288Z,8.70
2019-03-03T09:29:30.921Z,10.10
2019-03-03T09:34:55.225Z,9.13
2019-03-03T09:40:11.072Z,8.10
2019-03-03T09:45:32.564Z,8.27
2019-03-03T09:50:57.558Z,7.27
2019-03-03T09:56:25.573Z,6.40
2019-03-03T10:01:44.757Z,6.60
2019-03-03T10:06:56.459Z,6.57
2019-03-03T10:12:13.598Z,6.07
2019-03-03T10:17:39.844Z,5.90
2019-03-03T10:23:17.460Z,6.90
2019-03-03T10:28:52.277Z,6.37
2019-03-03T10:34:09.041Z,7.40
2019-03-03T10:39:25.714Z,7.60
2019-03-03T10:44:44.296Z,8.60
2019-03-03T10:50:21.455Z,8.77
2019-03-03T10:55:58.993Z,7.63
2019-03-03T11:01:07.035Z,7.80
2019-03-03T11:06:28.009Z,8.47
2019-03-03T11:11:50.405Z,7.20
2019-03-03T11:17:00.582Z,6.73
2019-03-03T11:22:21.718Z,6.70
2019-03-03T11:27:52.994Z,8.30
2019-03-03T11:33:16.830Z,4.97
2019-03-03T11:38:39.266Z,4.90
2019-03-03T11:44:02.899Z,5.00
2019-03-03T11:49:25.320Z,4.30
2019-03-03T11:54:54.919Z,4.77
2019-03-03T12:00:35.120Z,5.50
2019-03-03T12:06:09.288Z,5.50
2019-03-03T12:11:30.540Z,9.17
2019-03-03T12:16:44.719Z,7.97
2019-03-03T12:22:18.852Z,6.67
2019-03-03T12:27:41.090Z,6.33
2019-03-03T12:33:08.131Z,5.00
2019-03-03T12:38:30.409Z,5.33
2019-03-03T12:44:11.046Z,5.60
2019-03-03T12:49:29.616Z,5.30
2019-03-03T12:54:53.854Z,4.60
2019-03-03T13:00:17.426Z,4.67
2019-03-03T13:05:32.698Z,4.60
2019-03-03T13:11:03.847Z,5.10
2019-03-03T13:16:26.174Z,5.50
2019-03-03T13:21:48.793Z,6.63
2019-03-03T13:27:09.400Z,5.80
2019-03-03T13:32:34.484Z,5.73
2019-03-03T13:37:55.334Z,7.17
2019-03-03T13:43:01.095Z,4.77
2019-03-03T13:48:04.011Z,5.17
2019-03-03T13:53:10.116Z,4.20
2019-03-03T13:58:12.927Z,4.23
2019-03-03T14:03:15.743Z,4.30
2019-03-03T14:08:18.674Z,4.50
2019-03-03T14:13:21.576Z,4.43
2019-03-03T14:18:24.408Z,5.00
2019-03-03T14:23:27.274Z,4.70
2019-03-03T14:28:30.084Z,5.50
2019-03-03T14:33:34.189Z,4.90
2019-03-03T14:38:38.239Z,5.80
2019-03-03T14:43:41.740Z,5.60
2019-03-03T14:48:44.625Z,5.90
2019-03-03T14:53:53.779Z,6.00
2019-03-03T14:58:56.611Z,6.07
2019-03-03T15:03:59.406Z,5.80
2019-03-03T15:09:12.955Z,5.23
2019-03-03T15:14:15.787Z,5.87
2019-03-03T15:19:18.681Z,5.73
2019-03-03T15:24:24.913Z,5.80
2019-03-03T15:29:27.737Z,6.10
2019-03-03T15:34:30.549Z,5.20
2019-03-03T15:39:33.362Z,6.13
2019-03-03T15:44:42.289Z,5.70
2019-03-03T15:49:48.189Z,7.07
2019-03-03T15:54:53.984Z,6.27
2019-03-03T15:59:56.805Z,6.70
2019-03-03T16:04:59.731Z,7.03
2019-03-03T16:10:02.588Z,5.97
2019-03-03T16:15:07.126Z,6.23
2019-03-03T16:20:11.891Z,7.20
2019-03-03T16:25:15.475Z,7.20
2019-03-03T16:30:19.377Z,7.93
2019-03-03T16:35:25.337Z,7.73
2019-03-03T16:40:28.286Z,7.77
2019-03-03T16:45:31.738Z,7.73
2019-03-03T16:50:34.644Z,7.10
2019-03-03T16:55:37.502Z,7.83
2019-03-03T17:00:43.330Z,8.20
2019-03-03T17:05:46.693Z,6.90
2019-03-03T17:10:50.307Z,8.00
2019-03-03T17:15:53.253Z,8.47
2019-03-03T17:20:56.109Z,8.20
2019-03-03T17:25:58.912Z,8.70
2019-03-03T17:31:04.558Z,9.07
2019-03-03T17:36:07.375Z,11.17
2019-03-03T17:41:16.959Z,12.23
2019-03-03T17:46:19.891Z,11.50
2019-03-03T17:51:22.715Z,11.60
2019-03-03T17:56:25.516Z,12.20
2019-03-03T18:01:28.325Z,13.57
2019-03-03T18:06:38.839Z,13.33
2019-03-03T18:11:38.599Z,13.90
2019-03-03T18:16:42.027Z,14.33
2019-03-03T18:22:00.286Z,14.00
2019-03-03T18:27:03.067Z,14.70
2019-03-03T18:32:05.938Z,14.03
2019-03-03T18:37:08.955Z,13.23
2019-03-03T18:42:14.798Z,13.33
2019-03-03T18:47:17.672Z,12.87
2019-03-03T18:52:20.563Z,12.40
2019-03-03T18:57:23.428Z,13.10
2019-03-03T19:02:32.565Z,13.43
2019-03-03T19:07:35.643Z,13.80
2019-03-03T19:12:38.995Z,13.80
2019-03-03T19:17:42.006Z,12.50
2019-03-03T19:22:44.909Z,12.10
2019-03-03T19:27:47.865Z,12.97
2019-03-03T19:33:05.818Z,13.63
2019-03-03T19:38:08.641Z,13.13
2019-03-03T19:43:11.464Z,14.13
2019-03-03T19:48:14.321Z,15.43
2019-03-03T19:53:17.163Z,15.97
2019-03-03T19:58:20.071Z,16.93
2019-03-03T20:03:26.077Z,18.10
2019-03-03T20:08:28.901Z,18.30
2019-03-03T20:13:35.006Z,19.40
2019-03-03T20:18:38.760Z,19.23
2019-03-03T20:23:44.733Z,18.93
2019-03-03T20:28:47.514Z,19.27
2019-03-03T20:33:50.533Z,20.37
2019-03-03T20:38:53.312Z,20.00
2019-03-03T20:43:56.105Z,18.40
2019-03-03T20:48:58.915Z,20.20
2019-03-03T20:54:01.768Z,20.67
2019-03-03T20:59:04.585Z,20.10
2019-03-03T21:04:15.479Z,18.47
2019-03-03T21:09:24.988Z,19.77
2019-03-03T21:14:28.501Z,18.23
2019-03-03T21:19:31.343Z,18.80
2019-03-03T21:24:34.220Z,17.20
2019-03-03T21:29:37.658Z,17.77
2019-03-03T21:34:43.790Z,16.20
2019-03-03T21:39:46.551Z,16.87
2019-03-03T21:44:50.027Z,15.00
2019-03-03T21:49:52.851Z,14.50
2019-03-03T21:54:55.709Z,16.10
2019-03-03T22:00:01.697Z,14.87
2019-03-03T22:05:04.483Z,14.27
2019-03-03T22:10:07.431Z,15.23
2019-03-03T22:15:10.276Z,12.53
2019-03-03T22:20:16.110Z,13.00
2019-03-03T22:25:18.970Z,11.30
2019-03-03T22:30:22.291Z,11.93
2019-03-03T22:35:25.599Z,10.47
2019-03-03T22:40:32.154Z,9.97
2019-03-03T22:45:38.434Z,10.10
2019-03-03T22:50:41.795Z,10.13
2019-03-03T22:55:44.992Z,9.40
2019-03-03T23:00:57.734Z,9.87
2019-03-03T23:06:45.148Z,9.30
2019-03-03T23:11:56.307Z,7.80
2019-03-03T23:17:15.628Z,8.20
2019-03-03T23:22:59.095Z,7.70
2019-03-03T23:28:04.891Z,8.93
2019-03-03T23:33:08.961Z,7.50
2019-03-03T23:38:11.975Z,9.17
2019-03-03T23:43:14.811Z,7.57
2019-03-03T23:48:20.651Z,7.50
2019-03-03T23:53:23.978Z,7.20
2019-03-03T23:58:26.855Z,8.00
